sensor_id;sensor_type;location;lat;lon;timestamp;temperature;humidity
29571;DHT22;16814;52.118;11.436;2023-04-24T00:02:03;12.40;99.90
29571;DHT22;16814;52.118;11.436;2023-04-24T00:04:29;12.30;99.90
29571;DHT22;16814;52.118;11.436;2023-04-24T00:06:55;12.30;99.90
29571;DHT22;16814;52.118;11.436;2023-04-24T00:09:24;12.30;99.90
29571;DHT22;16814;52.118;11.436;2023-04-24T00:11:49;12.20;99.90
29571;DHT22;16814;52.118;11.436;2023-04-24T00:14:17;12.20;99.90
29571;DHT22;16814;52.118;11.436;2023-04-24T00:16:42;12.20;99.90
29571;DHT22;16814;52.118;11.436;2023-04-24T00:19:08;12.20;99.90
29571;DHT22;16814;52.118;11.436;2023-04-24T00:21:35;12.30;99.90
29571;DHT22;16814;52.118;11.436;2023-04-24T00:24:02;12.30;99.90
29571;DHT22;16814;52.118;11.436;2023-04-24T00:26:29;12.20;99.90
29571;DHT22;16814;52.118;11.436;2023-04-24T00:28:57;12.20;99.90
29571;DHT22;16814;52.118;11.436;2023-04-24T00:31:22;12.20;99.90
29571;DHT22;16814;52.118;11.436;2023-04-24T00:33:51;12.20;99.90
29571;DHT22;16814;52.118;11.436;2023-04-24T00:36:17;12.20;99.90
29571;DHT22;16814;52.118;11.436;2023-04-24T00:38:45;12.30;99.90
29571;DHT22;16814;52.118;11.436;2023-04-24T00:41:12;12.20;99.90
29571;DHT22;16814;52.118;11.436;2023-04-24T00:43:39;12.20;99.90
29571;DHT22;16814;52.118;11.436;2023-04-24T00:46:07;12.20;99.90
29571;DHT22;16814;52.118;11.436;2023-04-24T00:48:35;12.20;99.90
29571;DHT22;16814;52.118;11.436;2023-04-24T00:51:03;12.30;99.90
29571;DHT22;16814;52.118;11.436;2023-04-24T00:53:29;12.40;99.90
29571;DHT22;16814;52.118;11.436;2023-04-24T00:55:56;12.30;99.90
29571;DHT22;16814;52.118;11.436;2023-04-24T00:58:22;12.30;99.90
29571;DHT22;16814;52.118;11.436;2023-04-24T01:00:51;12.20;99.90
29571;DHT22;16814;52.118;11.436;2023-04-24T01:03:26;12.20;99.90
29571;DHT22;16814;52.118;11.436;2023-04-24T01:05:56;12.20;99.90
29571;DHT22;16814;52.118;11.436;2023-04-24T01:08:28;12.30;99.90
29571;DHT22;16814;52.118;11.436;2023-04-24T01:10:54;12.40;99.90
29571;DHT22;16814;52.118;11.436;2023-04-24T01:13:23;12.30;99.90
29571;DHT22;16814;52.118;11.436;2023-04-24T01:15:50;12.30;99.90
29571;DHT22;16814;52.118;11.436;2023-04-24T01:18:17;12.30;99.90
29571;DHT22;16814;52.118;11.436;2023-04-24T01:20:45;12.30;99.90
29571;DHT22;16814;52.118;11.436;2023-04-24T01:23:11;12.30;99.90
29571;DHT22;16814;52.118;11.436;2023-04-24T01:25:39;12.30;99.90
29571;DHT22;16814;52.118;11.436;2023-04-24T01:28:09;12.30;99.90
29571;DHT22;16814;52.118;11.436;2023-04-24T01:30:37;12.40;99.90
29571;DHT22;16814;52.118;11.436;2023-04-24T01:33:07;12.40;99.90
29571;DHT22;16814;52.118;11.436;2023-04-24T01:35:34;12.40;99.90
29571;DHT22;16814;52.118;11.436;2023-04-24T01:38:03;12.40;99.90
29571;DHT22;16814;52.118;11.436;2023-04-24T01:40:30;12.80;99.90
29571;DHT22;16814;52.118;11.436;2023-04-24T01:42:59;12.30;99.90
29571;DHT22;16814;52.118;11.436;2023-04-24T01:45:28;12.20;99.90
29571;DHT22;16814;52.118;11.436;2023-04-24T01:47:55;12.10;99.90
29571;DHT22;16814;52.118;11.436;2023-04-24T01:50:23;12.00;99.90
29571;DHT22;16814;52.118;11.436;2023-04-24T01:52:59;11.90;99.90
29571;DHT22;16814;52.118;11.436;2023-04-24T01:55:29;11.80;99.90
29571;DHT22;16814;52.118;11.436;2023-04-24T01:57:56;11.70;99.90
29571;DHT22;16814;52.118;11.436;2023-04-24T02:00:24;11.60;99.90
29571;DHT22;16814;52.118;11.436;2023-04-24T02:02:51;11.70;99.90
29571;DHT22;16814;52.118;11.436;2023-04-24T02:05:20;11.60;99.90
29571;DHT22;16814;52.118;11.436;2023-04-24T02:07:48;11.70;99.90
29571;DHT22;16814;52.118;11.436;2023-04-24T02:10:14;11.70;99.90
29571;DHT22;16814;52.118;11.436;2023-04-24T02:12:43;11.70;99.90
29571;DHT22;16814;52.118;11.436;2023-04-24T02:15:11;11.60;99.90
29571;DHT22;16814;52.118;11.436;2023-04-24T02:17:39;11.50;99.90
29571;DHT22;16814;52.118;11.436;2023-04-24T02:20:09;11.40;99.90
29571;DHT22;16814;52.118;11.436;2023-04-24T02:22:35;11.40;99.90
29571;DHT22;16814;52.118;11.436;2023-04-24T02:25:02;11.30;99.90
29571;DHT22;16814;52.118;11.436;2023-04-24T02:27:29;11.30;99.90
29571;DHT22;16814;52.118;11.436;2023-04-24T02:29:55;11.20;99.90
29571;DHT22;16814;52.118;11.436;2023-04-24T02:32:21;11.10;99.90
29571;DHT22;16814;52.118;11.436;2023-04-24T02:34:47;11.00;99.90
29571;DHT22;16814;52.118;11.436;2023-04-24T02:37:16;11.10;99.90
29571;DHT22;16814;52.118;11.436;2023-04-24T02:39:44;11.00;99.90
29571;DHT22;16814;52.118;11.436;2023-04-24T02:42:11;11.30;99.90
29571;DHT22;16814;52.118;11.436;2023-04-24T02:44:37;11.30;99.90
29571;DHT22;16814;52.118;11.436;2023-04-24T02:47:04;11.40;99.90
29571;DHT22;16814;52.118;11.436;2023-04-24T02:49:32;11.30;99.90
29571;DHT22;16814;52.118;11.436;2023-04-24T02:51:58;11.10;99.90
29571;DHT22;16814;52.118;11.436;2023-04-24T02:54:24;11.00;99.90
29571;DHT22;16814;52.118;11.436;2023-04-24T02:56:52;10.70;99.90
29571;DHT22;16814;52.118;11.436;2023-04-24T02:59:20;10.80;99.90
29571;DHT22;16814;52.118;11.436;2023-04-24T03:01:47;10.80;99.90
29571;DHT22;16814;52.118;11.436;2023-04-24T03:04:12;10.80;99.90
29571;DHT22;16814;52.118;11.436;2023-04-24T03:06:39;10.80;99.90
29571;DHT22;16814;52.118;11.436;2023-04-24T03:09:05;10.70;99.90
29571;DHT22;16814;52.118;11.436;2023-04-24T03:11:32;10.70;99.90
29571;DHT22;16814;52.118;11.436;2023-04-24T03:13:58;10.70;99.90
29571;DHT22;16814;52.118;11.436;2023-04-24T03:16:25;10.60;99.90
29571;DHT22;16814;52.118;11.436;2023-04-24T03:18:51;10.50;99.90
29571;DHT22;16814;52.118;11.436;2023-04-24T03:21:20;10.40;99.90
29571;DHT22;16814;52.118;11.436;2023-04-24T03:23:48;10.40;99.90
29571;DHT22;16814;52.118;11.436;2023-04-24T03:26:14;10.30;99.90
29571;DHT22;16814;52.118;11.436;2023-04-24T03:28:41;10.30;99.90
29571;DHT22;16814;52.118;11.436;2023-04-24T03:31:08;10.40;99.90
29571;DHT22;16814;52.118;11.436;2023-04-24T03:33:35;10.30;99.90
29571;DHT22;16814;52.118;11.436;2023-04-24T03:36:02;10.30;99.90
29571;DHT22;16814;52.118;11.436;2023-04-24T03:38:29;10.30;99.90
29571;DHT22;16814;52.118;11.436;2023-04-24T03:40:56;10.30;99.90
29571;DHT22;16814;52.118;11.436;2023-04-24T03:43:24;10.20;99.90
29571;DHT22;16814;52.118;11.436;2023-04-24T03:45:51;10.20;99.90
29571;DHT22;16814;52.118;11.436;2023-04-24T03:48:19;10.20;99.90
29571;DHT22;16814;52.118;11.436;2023-04-24T03:50:46;10.00;99.90
29571;DHT22;16814;52.118;11.436;2023-04-24T03:53:13;10.00;99.90
29571;DHT22;16814;52.118;11.436;2023-04-24T03:55:41;10.00;99.90
29571;DHT22;16814;52.118;11.436;2023-04-24T03:58:09;9.90;99.90
29571;DHT22;16814;52.118;11.436;2023-04-24T04:00:35;9.90;99.90
29571;DHT22;16814;52.118;11.436;2023-04-24T04:03:03;9.80;99.90
29571;DHT22;16814;52.118;11.436;2023-04-24T04:05:30;9.80;99.90
29571;DHT22;16814;52.118;11.436;2023-04-24T04:07:59;9.90;99.90
29571;DHT22;16814;52.118;11.436;2023-04-24T04:10:27;9.90;99.90
29571;DHT22;16814;52.118;11.436;2023-04-24T04:12:53;9.90;99.90
29571;DHT22;16814;52.118;11.436;2023-04-24T04:15:20;10.10;99.90
29571;DHT22;16814;52.118;11.436;2023-04-24T04:17:49;9.80;99.90
29571;DHT22;16814;52.118;11.436;2023-04-24T04:20:16;9.90;99.90
29571;DHT22;16814;52.118;11.436;2023-04-24T04:22:42;9.90;99.90
29571;DHT22;16814;52.118;11.436;2023-04-24T04:25:09;10.00;99.90
29571;DHT22;16814;52.118;11.436;2023-04-24T04:27:37;10.00;99.90
29571;DHT22;16814;52.118;11.436;2023-04-24T04:30:04;9.90;99.90
29571;DHT22;16814;52.118;11.436;2023-04-24T04:32:36;9.90;99.90
29571;DHT22;16814;52.118;11.436;2023-04-24T04:35:04;9.90;99.90
29571;DHT22;16814;52.118;11.436;2023-04-24T04:37:34;10.00;99.90
29571;DHT22;16814;52.118;11.436;2023-04-24T04:40:01;9.90;99.90
29571;DHT22;16814;52.118;11.436;2023-04-24T04:42:34;10.00;99.90
29571;DHT22;16814;52.118;11.436;2023-04-24T04:45:01;10.00;99.90
29571;DHT22;16814;52.118;11.436;2023-04-24T04:47:27;10.10;99.90
29571;DHT22;16814;52.118;11.436;2023-04-24T04:49:56;10.20;99.90
29571;DHT22;16814;52.118;11.436;2023-04-24T04:52:25;10.40;99.90
29571;DHT22;16814;52.118;11.436;2023-04-24T04:54:54;10.70;99.90
29571;DHT22;16814;52.118;11.436;2023-04-24T04:57:21;11.00;99.90
29571;DHT22;16814;52.118;11.436;2023-04-24T04:59:47;11.20;99.90
29571;DHT22;16814;52.118;11.436;2023-04-24T05:02:17;11.30;99.90
29571;DHT22;16814;52.118;11.436;2023-04-24T05:04:43;11.40;99.90
29571;DHT22;16814;52.118;11.436;2023-04-24T05:07:08;11.50;99.90
29571;DHT22;16814;52.118;11.436;2023-04-24T05:09:44;11.70;99.90
29571;DHT22;16814;52.118;11.436;2023-04-24T05:12:11;11.80;99.90
29571;DHT22;16814;52.118;11.436;2023-04-24T05:14:38;12.10;99.90
29571;DHT22;16814;52.118;11.436;2023-04-24T05:17:05;12.20;99.90
29571;DHT22;16814;52.118;11.436;2023-04-24T05:19:30;12.50;99.90
29571;DHT22;16814;52.118;11.436;2023-04-24T05:22:03;12.70;99.90
29571;DHT22;16814;52.118;11.436;2023-04-24T05:24:36;13.30;99.90
29571;DHT22;16814;52.118;11.436;2023-04-24T05:27:03;14.00;99.90
29571;DHT22;16814;52.118;11.436;2023-04-24T05:29:35;14.10;99.90
29571;DHT22;16814;52.118;11.436;2023-04-24T05:32:03;14.00;99.90
29571;DHT22;16814;52.118;11.436;2023-04-24T05:34:35;13.60;99.90
29571;DHT22;16814;52.118;11.436;2023-04-24T05:37:02;13.30;99.90
29571;DHT22;16814;52.118;11.436;2023-04-24T05:39:30;13.10;99.90
29571;DHT22;16814;52.118;11.436;2023-04-24T05:41:56;12.90;99.90
29571;DHT22;16814;52.118;11.436;2023-04-24T05:44:25;12.70;99.90
29571;DHT22;16814;52.118;11.436;2023-04-24T05:46:51;12.70;99.90
29571;DHT22;16814;52.118;11.436;2023-04-24T05:49:16;12.80;99.90
29571;DHT22;16814;52.118;11.436;2023-04-24T05:51:43;12.80;99.90
29571;DHT22;16814;52.118;11.436;2023-04-24T05:54:10;12.80;99.90
29571;DHT22;16814;52.118;11.436;2023-04-24T05:56:46;13.40;99.90
29571;DHT22;16814;52.118;11.436;2023-04-24T05:59:13;14.40;99.90
29571;DHT22;16814;52.118;11.436;2023-04-24T06:01:41;15.00;99.90
29571;DHT22;16814;52.118;11.436;2023-04-24T06:04:07;15.10;99.90
29571;DHT22;16814;52.118;11.436;2023-04-24T06:06:34;14.80;99.90
29571;DHT22;16814;52.118;11.436;2023-04-24T06:09:00;14.60;99.90
29571;DHT22;16814;52.118;11.436;2023-04-24T06:11:28;15.10;99.90
29571;DHT22;16814;52.118;11.436;2023-04-24T06:13:54;15.70;99.90
29571;DHT22;16814;52.118;11.436;2023-04-24T06:16:19;15.70;99.90
29571;DHT22;16814;52.118;11.436;2023-04-24T06:18:47;15.50;99.90
29571;DHT22;16814;52.118;11.436;2023-04-24T06:21:17;15.20;99.90
29571;DHT22;16814;52.118;11.436;2023-04-24T06:23:43;15.40;99.90
29571;DHT22;16814;52.118;11.436;2023-04-24T06:26:10;15.20;99.90
29571;DHT22;16814;52.118;11.436;2023-04-24T06:28:36;14.90;99.90
29571;DHT22;16814;52.118;11.436;2023-04-24T06:31:05;14.50;99.90
29571;DHT22;16814;52.118;11.436;2023-04-24T06:33:30;14.00;99.90
29571;DHT22;16814;52.118;11.436;2023-04-24T06:35:58;13.80;99.90
29571;DHT22;16814;52.118;11.436;2023-04-24T06:38:26;13.70;99.90
29571;DHT22;16814;52.118;11.436;2023-04-24T06:41:02;13.70;99.90
29571;DHT22;16814;52.118;11.436;2023-04-24T06:43:31;13.60;99.90
29571;DHT22;16814;52.118;11.436;2023-04-24T06:45:58;13.60;99.90
29571;DHT22;16814;52.118;11.436;2023-04-24T06:48:26;13.20;99.90
29571;DHT22;16814;52.118;11.436;2023-04-24T06:50:53;13.80;99.90
29571;DHT22;16814;52.118;11.436;2023-04-24T06:53:22;13.90;99.90
29571;DHT22;16814;52.118;11.436;2023-04-24T06:55:48;14.20;99.90
29571;DHT22;16814;52.118;11.436;2023-04-24T06:58:23;14.50;99.90
29571;DHT22;16814;52.118;11.436;2023-04-24T07:00:50;14.60;99.90
29571;DHT22;16814;52.118;11.436;2023-04-24T07:03:17;14.70;99.90
29571;DHT22;16814;52.118;11.436;2023-04-24T07:05:44;14.70;99.90
29571;DHT22;16814;52.118;11.436;2023-04-24T07:08:12;14.60;99.90
29571;DHT22;16814;52.118;11.436;2023-04-24T07:10:39;14.50;99.90
29571;DHT22;16814;52.118;11.436;2023-04-24T07:13:05;14.60;99.90
29571;DHT22;16814;52.118;11.436;2023-04-24T07:15:34;14.70;99.90
29571;DHT22;16814;52.118;11.436;2023-04-24T07:18:02;14.60;99.90
29571;DHT22;16814;52.118;11.436;2023-04-24T07:20:30;14.60;99.90
29571;DHT22;16814;52.118;11.436;2023-04-24T07:22:58;14.60;99.90
29571;DHT22;16814;52.118;11.436;2023-04-24T07:25:26;14.60;99.90
29571;DHT22;16814;52.118;11.436;2023-04-24T07:27:53;14.60;99.90
29571;DHT22;16814;52.118;11.436;2023-04-24T07:30:21;14.50;99.90
29571;DHT22;16814;52.118;11.436;2023-04-24T07:32:47;14.50;99.90
29571;DHT22;16814;52.118;11.436;2023-04-24T07:35:15;14.40;99.90
29571;DHT22;16814;52.118;11.436;2023-04-24T07:37:44;14.50;99.90
29571;DHT22;16814;52.118;11.436;2023-04-24T07:40:17;14.50;99.90
29571;DHT22;16814;52.118;11.436;2023-04-24T07:42:43;14.40;99.90
29571;DHT22;16814;52.118;11.436;2023-04-24T07:45:09;14.50;99.90
29571;DHT22;16814;52.118;11.436;2023-04-24T07:47:36;14.80;99.90
29571;DHT22;16814;52.118;11.436;2023-04-24T07:50:05;15.00;99.90
29571;DHT22;16814;52.118;11.436;2023-04-24T07:52:35;15.10;99.90
29571;DHT22;16814;52.118;11.436;2023-04-24T07:55:11;15.10;99.90
29571;DHT22;16814;52.118;11.436;2023-04-24T07:57:40;15.00;99.90
29571;DHT22;16814;52.118;11.436;2023-04-24T08:00:15;15.00;99.90
29571;DHT22;16814;52.118;11.436;2023-04-24T08:02:43;15.20;99.90
29571;DHT22;16814;52.118;11.436;2023-04-24T08:05:11;15.40;99.90
29571;DHT22;16814;52.118;11.436;2023-04-24T08:07:41;15.40;99.90
29571;DHT22;16814;52.118;11.436;2023-04-24T08:10:12;15.40;99.90
29571;DHT22;16814;52.118;11.436;2023-04-24T08:12:38;15.30;99.90
29571;DHT22;16814;52.118;11.436;2023-04-24T08:15:05;15.20;99.90
29571;DHT22;16814;52.118;11.436;2023-04-24T08:17:32;15.20;99.90
29571;DHT22;16814;52.118;11.436;2023-04-24T08:19:57;15.10;99.90
29571;DHT22;16814;52.118;11.436;2023-04-24T08:22:28;15.40;99.90
29571;DHT22;16814;52.118;11.436;2023-04-24T08:24:56;16.00;99.90
29571;DHT22;16814;52.118;11.436;2023-04-24T08:27:25;16.70;99.90
29571;DHT22;16814;52.118;11.436;2023-04-24T08:29:56;17.50;99.90
29571;DHT22;16814;52.118;11.436;2023-04-24T08:32:23;17.90;99.90
29571;DHT22;16814;52.118;11.436;2023-04-24T08:34:51;18.30;99.90
29571;DHT22;16814;52.118;11.436;2023-04-24T08:37:19;18.70;99.90
29571;DHT22;16814;52.118;11.436;2023-04-24T08:39:46;18.80;99.90
29571;DHT22;16814;52.118;11.436;2023-04-24T08:42:17;18.90;99.90
29571;DHT22;16814;52.118;11.436;2023-04-24T08:44:45;18.80;99.90
29571;DHT22;16814;52.118;11.436;2023-04-24T08:47:12;18.70;99.90
29571;DHT22;16814;52.118;11.436;2023-04-24T08:49:39;18.70;99.90
29571;DHT22;16814;52.118;11.436;2023-04-24T08:52:05;18.80;99.90
29571;DHT22;16814;52.118;11.436;2023-04-24T08:54:35;19.00;99.90
29571;DHT22;16814;52.118;11.436;2023-04-24T08:57:03;19.10;99.90
29571;DHT22;16814;52.118;11.436;2023-04-24T08:59:32;18.90;99.90
29571;DHT22;16814;52.118;11.436;2023-04-24T09:02:00;18.40;99.90
29571;DHT22;16814;52.118;11.436;2023-04-24T09:04:28;18.30;99.90
29571;DHT22;16814;52.118;11.436;2023-04-24T09:06:58;18.40;99.90
29571;DHT22;16814;52.118;11.436;2023-04-24T09:09:32;18.40;99.90
29571;DHT22;16814;52.118;11.436;2023-04-24T09:11:59;18.60;99.90
29571;DHT22;16814;52.118;11.436;2023-04-24T09:14:26;18.50;99.90
29571;DHT22;16814;52.118;11.436;2023-04-24T09:16:53;18.10;99.90
29571;DHT22;16814;52.118;11.436;2023-04-24T09:19:20;17.70;99.90
29571;DHT22;16814;52.118;11.436;2023-04-24T09:21:47;17.30;99.90
29571;DHT22;16814;52.118;11.436;2023-04-24T09:24:20;17.20;99.90
29571;DHT22;16814;52.118;11.436;2023-04-24T09:26:59;16.60;99.90
29571;DHT22;16814;52.118;11.436;2023-04-24T09:29:26;16.40;99.90
29571;DHT22;16814;52.118;11.436;2023-04-24T09:31:54;16.20;99.90
29571;DHT22;16814;52.118;11.436;2023-04-24T09:34:28;16.00;99.90
29571;DHT22;16814;52.118;11.436;2023-04-24T09:36:55;16.00;99.90
29571;DHT22;16814;52.118;11.436;2023-04-24T09:39:22;16.00;99.90
29571;DHT22;16814;52.118;11.436;2023-04-24T09:41:53;16.00;99.90
29571;DHT22;16814;52.118;11.436;2023-04-24T09:44:26;16.10;99.90
29571;DHT22;16814;52.118;11.436;2023-04-24T09:47:00;16.40;99.90
29571;DHT22;16814;52.118;11.436;2023-04-24T09:49:27;17.00;99.90
29571;DHT22;16814;52.118;11.436;2023-04-24T09:52:07;17.60;99.90
29571;DHT22;16814;52.118;11.436;2023-04-24T09:54:33;18.00;99.90
29571;DHT22;16814;52.118;11.436;2023-04-24T09:57:00;18.10;99.90
29571;DHT22;16814;52.118;11.436;2023-04-24T09:59:28;17.90;99.90
29571;DHT22;16814;52.118;11.436;2023-04-24T10:01:55;17.60;99.90
29571;DHT22;16814;52.118;11.436;2023-04-24T10:04:24;17.90;99.90
29571;DHT22;16814;52.118;11.436;2023-04-24T10:06:54;18.00;99.90
29571;DHT22;16814;52.118;11.436;2023-04-24T10:09:25;18.00;99.90
29571;DHT22;16814;52.118;11.436;2023-04-24T10:11:53;17.90;99.90
29571;DHT22;16814;52.118;11.436;2023-04-24T10:14:28;17.80;99.90
29571;DHT22;16814;52.118;11.436;2023-04-24T10:16:56;17.70;99.90
29571;DHT22;16814;52.118;11.436;2023-04-24T10:19:25;17.60;99.90
29571;DHT22;16814;52.118;11.436;2023-04-24T10:21:58;17.40;99.90
29571;DHT22;16814;52.118;11.436;2023-04-24T10:24:24;17.10;99.90
29571;DHT22;16814;52.118;11.436;2023-04-24T10:26:53;16.90;99.90
29571;DHT22;16814;52.118;11.436;2023-04-24T10:29:21;17.00;99.90
29571;DHT22;16814;52.118;11.436;2023-04-24T10:31:48;17.30;99.90
29571;DHT22;16814;52.118;11.436;2023-04-24T10:34:16;17.70;99.90
29571;DHT22;16814;52.118;11.436;2023-04-24T10:36:52;18.00;99.90
29571;DHT22;16814;52.118;11.436;2023-04-24T10:39:20;18.10;99.90
29571;DHT22;16814;52.118;11.436;2023-04-24T10:41:49;18.20;99.90
29571;DHT22;16814;52.118;11.436;2023-04-24T10:44:19;18.40;99.90
29571;DHT22;16814;52.118;11.436;2023-04-24T10:46:54;18.40;99.90
29571;DHT22;16814;52.118;11.436;2023-04-24T10:49:30;18.30;99.90
29571;DHT22;16814;52.118;11.436;2023-04-24T10:52:01;18.20;99.90
29571;DHT22;16814;52.118;11.436;2023-04-24T10:54:33;18.40;99.90
29571;DHT22;16814;52.118;11.436;2023-04-24T10:59:45;18.60;99.90
29571;DHT22;16814;52.118;11.436;2023-04-24T11:02:16;18.40;99.90
29571;DHT22;16814;52.118;11.436;2023-04-24T11:04:44;18.20;99.90
29571;DHT22;16814;52.118;11.436;2023-04-24T11:07:11;18.40;99.90
29571;DHT22;16814;52.118;11.436;2023-04-24T11:09:41;18.50;99.90
29571;DHT22;16814;52.118;11.436;2023-04-24T11:12:09;18.40;99.90
29571;DHT22;16814;52.118;11.436;2023-04-24T11:17:34;18.00;99.50
29571;DHT22;16814;52.118;11.436;2023-04-24T11:20:09;17.80;99.90
29571;DHT22;16814;52.118;11.436;2023-04-24T11:22:39;17.60;99.90
29571;DHT22;16814;52.118;11.436;2023-04-24T11:25:16;17.20;99.90
29571;DHT22;16814;52.118;11.436;2023-04-24T11:27:45;17.10;99.90
29571;DHT22;16814;52.118;11.436;2023-04-24T11:30:19;17.00;99.90
29571;DHT22;16814;52.118;11.436;2023-04-24T11:32:50;16.80;99.90
29571;DHT22;16814;52.118;11.436;2023-04-24T11:35:24;16.70;99.90
29571;DHT22;16814;52.118;11.436;2023-04-24T11:37:53;16.90;99.90
29571;DHT22;16814;52.118;11.436;2023-04-24T11:40:21;17.00;99.90
29571;DHT22;16814;52.118;11.436;2023-04-24T11:42:53;17.00;99.90
29571;DHT22;16814;52.118;11.436;2023-04-24T11:45:28;16.90;99.90
29571;DHT22;16814;52.118;11.436;2023-04-24T11:47:56;16.80;99.90
29571;DHT22;16814;52.118;11.436;2023-04-24T11:50:27;16.70;99.90
29571;DHT22;16814;52.118;11.436;2023-04-24T11:52:55;16.60;99.90
29571;DHT22;16814;52.118;11.436;2023-04-24T11:55:26;16.60;99.90
29571;DHT22;16814;52.118;11.436;2023-04-24T11:57:55;16.60;99.90
29571;DHT22;16814;52.118;11.436;2023-04-24T12:00:32;16.60;99.90
29571;DHT22;16814;52.118;11.436;2023-04-24T12:03:12;16.80;99.90
29571;DHT22;16814;52.118;11.436;2023-04-24T12:05:40;17.00;99.90
29571;DHT22;16814;52.118;11.436;2023-04-24T12:08:06;17.00;99.90
29571;DHT22;16814;52.118;11.436;2023-04-24T12:10:34;17.00;99.90
29571;DHT22;16814;52.118;11.436;2023-04-24T12:13:08;17.00;99.90
29571;DHT22;16814;52.118;11.436;2023-04-24T12:15:35;17.00;99.90
29571;DHT22;16814;52.118;11.436;2023-04-24T12:18:08;17.00;99.90
29571;DHT22;16814;52.118;11.436;2023-04-24T12:20:40;17.10;99.90
29571;DHT22;16814;52.118;11.436;2023-04-24T12:23:06;17.00;99.90
29571;DHT22;16814;52.118;11.436;2023-04-24T12:25:34;17.00;99.90
29571;DHT22;16814;52.118;11.436;2023-04-24T12:30:44;17.00;99.90
29571;DHT22;16814;52.118;11.436;2023-04-24T12:33:16;17.10;99.90
29571;DHT22;16814;52.118;11.436;2023-04-24T12:35:45;17.30;99.90
29571;DHT22;16814;52.118;11.436;2023-04-24T12:38:16;17.30;99.90
29571;DHT22;16814;52.118;11.436;2023-04-24T12:40:44;17.20;99.90
29571;DHT22;16814;52.118;11.436;2023-04-24T12:43:36;17.00;99.90
29571;DHT22;16814;52.118;11.436;2023-04-24T12:46:03;16.90;99.90
29571;DHT22;16814;52.118;11.436;2023-04-24T12:48:29;16.80;99.90
29571;DHT22;16814;52.118;11.436;2023-04-24T12:51:00;16.80;99.90
29571;DHT22;16814;52.118;11.436;2023-04-24T12:53:29;16.90;99.90
29571;DHT22;16814;52.118;11.436;2023-04-24T12:55:57;17.00;99.90
29571;DHT22;16814;52.118;11.436;2023-04-24T12:58:22;17.00;99.90
29571;DHT22;16814;52.118;11.436;2023-04-24T13:00:50;17.10;99.90
29571;DHT22;16814;52.118;11.436;2023-04-24T13:03:17;17.10;99.90
29571;DHT22;16814;52.118;11.436;2023-04-24T13:05:44;17.20;99.90
29571;DHT22;16814;52.118;11.436;2023-04-24T13:08:10;17.20;99.90
29571;DHT22;16814;52.118;11.436;2023-04-24T13:10:40;17.10;99.90
29571;DHT22;16814;52.118;11.436;2023-04-24T13:13:08;17.10;99.90
29571;DHT22;16814;52.118;11.436;2023-04-24T13:15:34;17.00;99.90
29571;DHT22;16814;52.118;11.436;2023-04-24T13:18:01;17.00;99.90
29571;DHT22;16814;52.118;11.436;2023-04-24T13:20:29;17.00;99.90
29571;DHT22;16814;52.118;11.436;2023-04-24T13:22:57;17.00;99.90
29571;DHT22;16814;52.118;11.436;2023-04-24T13:25:25;17.00;99.90
29571;DHT22;16814;52.118;11.436;2023-04-24T13:27:52;16.90;99.90
29571;DHT22;16814;52.118;11.436;2023-04-24T13:30:19;16.90;99.90
29571;DHT22;16814;52.118;11.436;2023-04-24T13:32:46;16.90;99.90
29571;DHT22;16814;52.118;11.436;2023-04-24T13:35:16;17.00;99.90
29571;DHT22;16814;52.118;11.436;2023-04-24T13:37:42;16.80;99.90
29571;DHT22;16814;52.118;11.436;2023-04-24T13:40:11;16.70;99.90
29571;DHT22;16814;52.118;11.436;2023-04-24T13:42:38;16.60;99.90
29571;DHT22;16814;52.118;11.436;2023-04-24T13:45:05;16.40;99.90
29571;DHT22;16814;52.118;11.436;2023-04-24T13:47:30;16.30;99.90
29571;DHT22;16814;52.118;11.436;2023-04-24T13:49:56;16.00;99.90
29571;DHT22;16814;52.118;11.436;2023-04-24T13:52:24;15.70;99.90
29571;DHT22;16814;52.118;11.436;2023-04-24T13:54:52;15.50;99.90
29571;DHT22;16814;52.118;11.436;2023-04-24T13:57:19;15.50;99.90
29571;DHT22;16814;52.118;11.436;2023-04-24T13:59:46;15.40;99.90
29571;DHT22;16814;52.118;11.436;2023-04-24T14:02:13;15.40;99.90
29571;DHT22;16814;52.118;11.436;2023-04-24T14:04:38;15.30;99.90
29571;DHT22;16814;52.118;11.436;2023-04-24T14:07:06;15.20;99.90
29571;DHT22;16814;52.118;11.436;2023-04-24T14:09:33;15.00;99.90
29571;DHT22;16814;52.118;11.436;2023-04-24T14:12:02;15.00;99.90
29571;DHT22;16814;52.118;11.436;2023-04-24T14:14:29;15.00;99.90
29571;DHT22;16814;52.118;11.436;2023-04-24T14:16:57;15.00;99.90
29571;DHT22;16814;52.118;11.436;2023-04-24T14:19:24;15.00;99.90
29571;DHT22;16814;52.118;11.436;2023-04-24T14:21:51;15.10;99.90
29571;DHT22;16814;52.118;11.436;2023-04-24T14:24:18;15.00;99.90
29571;DHT22;16814;52.118;11.436;2023-04-24T14:26:44;14.70;99.90
29571;DHT22;16814;52.118;11.436;2023-04-24T14:29:12;14.50;99.90
29571;DHT22;16814;52.118;11.436;2023-04-24T14:31:41;14.20;99.90
29571;DHT22;16814;52.118;11.436;2023-04-24T14:34:08;13.80;99.90
29571;DHT22;16814;52.118;11.436;2023-04-24T14:36:34;13.60;99.90
29571;DHT22;16814;52.118;11.436;2023-04-24T14:39:02;13.40;99.90
29571;DHT22;16814;52.118;11.436;2023-04-24T14:41:33;13.20;99.90
29571;DHT22;16814;52.118;11.436;2023-04-24T14:44:03;13.10;99.90
29571;DHT22;16814;52.118;11.436;2023-04-24T14:46:30;12.90;99.90
29571;DHT22;16814;52.118;11.436;2023-04-24T14:49:02;12.90;99.90
29571;DHT22;16814;52.118;11.436;2023-04-24T14:51:29;12.90;99.90
29571;DHT22;16814;52.118;11.436;2023-04-24T14:53:58;12.90;99.90
29571;DHT22;16814;52.118;11.436;2023-04-24T14:56:24;12.90;99.90
29571;DHT22;16814;52.118;11.436;2023-04-24T14:58:51;13.00;99.90
29571;DHT22;16814;52.118;11.436;2023-04-24T15:01:19;13.30;99.90
29571;DHT22;16814;52.118;11.436;2023-04-24T15:03:49;13.40;99.90
29571;DHT22;16814;52.118;11.436;2023-04-24T15:06:17;13.50;99.90
29571;DHT22;16814;52.118;11.436;2023-04-24T15:08:42;13.40;99.90
29571;DHT22;16814;52.118;11.436;2023-04-24T15:11:09;13.20;99.90
29571;DHT22;16814;52.118;11.436;2023-04-24T15:13:35;13.00;99.90
29571;DHT22;16814;52.118;11.436;2023-04-24T15:16:00;12.80;99.90
29571;DHT22;16814;52.118;11.436;2023-04-24T15:18:27;12.70;99.90
29571;DHT22;16814;52.118;11.436;2023-04-24T15:20:56;12.60;99.90
29571;DHT22;16814;52.118;11.436;2023-04-24T15:23:24;12.50;99.90
29571;DHT22;16814;52.118;11.436;2023-04-24T15:25:54;12.40;99.90
29571;DHT22;16814;52.118;11.436;2023-04-24T15:28:19;12.40;99.90
29571;DHT22;16814;52.118;11.436;2023-04-24T15:30:48;12.30;99.90
29571;DHT22;16814;52.118;11.436;2023-04-24T15:33:14;12.20;99.90